Impacts TAF Board
For situational awareness. Not to be used for flight planning purposes.
IDs:

KCLE - Cleveland/Hopkins In, OH, US

Issued at 1720 UTC 19 Jan 2019
Updated at 2312 UTC 19 Jan 2019
Potential Impact None Slight Moderate High
Time2256Z 20/00Z 20/01Z 20/02Z 20/03Z 20/04Z 20/05Z 20/06Z 20/07Z 20/08Z 20/09Z 20/10Z 20/11Z 20/12Z>>
Type OBS PRVL
  [TEMP]  
PRVL
  [TEMP]  
PRVL
  [TEMP]  
PRVL
  [TEMP]  
PRVL PRVL PRVL PRVL PRVL PRVL PRVL PRVL PRVL
  [PRB30]  
VIS 0.75 0.75
  [0.25]  
0.75
  [0.25]  
0.75
  [0.25]  
0.75
  [0.25]  
0.75 0.75 0.75 0.75 0.75 0.75 1 1 2
  [1]  
CIG 8 5
  [5]  
5
  [5]  
5
  [5]  
5
  [5]  
5 5 5 5 5 5 9 9 15
  [25]  
Cover OVC OVC
  [OVC]  
OVC
  [OVC]  
OVC
  [OVC]  
OVC
  [OVC]  
OVC OVC OVC OVC OVC OVC OVC OVC OVC
  [OVC]  
FltCat LIFR LIFR
  [LIFR]  
LIFR
  [LIFR]  
LIFR
  [LIFR]  
LIFR
  [LIFR]  
LIFR LIFR LIFR LIFR LIFR LIFR IFR IFR IFR
  [IFR]  
WX -SN BR -SN BLSN
  [+SN]  
-SN BLSN
  [+SN]  
-SN BLSN
  [+SN]  
-SN BLSN
  [+SN]  
-SN BLSN -SN BLSN -SN BLSN -SN BLSN -SN BLSN -SN BLSN -SN BLSN -SN BLSN BR VCSH
  [-SN]  
WDir 40 20
[20]
20
[20]
20
[20]
20
[20]
20 20 20 20 20 20 360 360 340
[340]
WSpd 22 23
  [23]  
23
  [23]  
23
  [23]  
23
  [23]  
23 23 23 23 23 23 22 22 22
  [22]  
WGst 33 38
  [38]  
38
  [38]  
38
  [38]  
38
  [38]  
38 38 38 38 38 38 34 34 29
  [29]  
Raw TAF
KCLE 191720Z 1918/2024 06015G24KT 1SM -SN OVC015
  TEMPO 1918/1922 1/2SM SN BLSN OVC008
  FM200000 02023G38KT 3/4SM -SN BLSN OVC005
  TEMPO 2000/2004 1/4SM +SN
  FM201000 36022G34KT 1SM -SN BLSN OVC009
  FM201200 34022G29KT 2SM BR VCSH OVC015
  PROB30 2012/2018 1SM -SN OVC025


Raw METAR
KCLE 192256Z 04022G33KT 3/4SM -SN BR BKN008 OVC012 M02/M04 A2976 RMK AO2 PK WND 05029/2253 P0001 T10221039
KCLE 192251Z 04026G33KT 3/4SM -SN BLSN SCT006 OVC012 M02/M04 A2976 RMK AO2 PK WND 05033/2249 SLP086 P0002 T10221039
KCLE 192151Z 04020KT 1/4SM SN FZFG VV009 M02/M03 A2980 RMK AO2 PK WND 05026/2149 SLP101 P0005 T10171033
KCLE 192051Z 05015KT 1/2SM SN FZFG SCT008 OVC014 M02/M04 A2984 RMK AO2 PK WND 04026/1953 SLP112 SNINCR 1/3 P0006 60012 T10221039 58021

METAR Board
Radar Display
Forecast Discussion
For situational awareness. Not to be used for flight planning purposes.